»·PEaware :: DAL2182 KRNO-KSLC

DAL2182 :: KRNO-KSLC

FLIGHT INFORMATION

Flight Status: Arrived
Operator:
Delta Air Lines
More flights by this operator :: More flights under this callsign
Pilot: John C. (18682)
Aircraft: BOEING 737-800
(B738)
More flights by this aircraft type
Origin: KRNO Reno/Tahoe Intl
United States
Destination: KSLC Salt Lake City Intl
United States
More flights between these airports :: More routes between these airports
Route: ZEFFR6 BLKJK LLC BAM J154 BVL WAATS5
File this flight plan on PilotEdge
Remarks:
Altitude:
(Current/Filed)
29,000ft
Speed:
(Current/Filed)
400kts
Departed: 14-Mar-20 12:05 PM
Arrived: 14-Mar-20 01:12 PM
Distance/Time
Traveled:
365nm/1:07
Distance/Time
To Go:
Arrived

Flight Plot

Page will automatically refresh every two minutes.


Map Options




Map Legend


Flown Route
Filed Route
Departure Airport
Arrival Airport
Navaid (VOR, NDB)
Fix

Horizontal Profiles

Position Reports

Time Latitude Longitude Heading Altitude Ground
Speed
14-Mar-20 11:42 39.504829 -119.772311 279 4415ft 0kts
14-Mar-20 11:43 39.504829 -119.772311 279 4415ft 0kts
14-Mar-20 11:44 39.504829 -119.772311 279 4415ft 0kts
14-Mar-20 11:45 39.504829 -119.772311 279 4415ft 0kts
14-Mar-20 11:46 39.504829 -119.772311 279 4415ft 0kts
14-Mar-20 11:47 39.504829 -119.772311 279 4415ft 0kts
14-Mar-20 11:48 39.504829 -119.772311 279 4415ft 0kts
14-Mar-20 11:49 39.504829 -119.772311 279 4415ft 0kts
14-Mar-20 11:50 39.504829 -119.772311 279 4415ft 0kts
14-Mar-20 11:51 39.504829 -119.772311 279 4415ft 0kts
14-Mar-20 11:52 39.504829 -119.772311 279 4415ft 0kts
14-Mar-20 11:53 39.504829 -119.772311 279 4415ft 0kts
14-Mar-20 11:54 39.504829 -119.772310 279 4415ft 0kts
14-Mar-20 11:55 39.504784 -119.771963 279 4414ft 2kts
14-Mar-20 11:57 39.504526 -119.771488 4 4413ft 1kts
14-Mar-20 11:58 39.504494 -119.771490 0 4413ft 0kts
14-Mar-20 11:59 39.504494 -119.771490 0 4413ft 0kts
14-Mar-20 12:00 39.504494 -119.771490 0 4413ft 0kts
14-Mar-20 12:01 39.505874 -119.771493 359 4415ft 13kts
14-Mar-20 12:02 39.511074 -119.771482 0 4419ft 22kts
14-Mar-20 12:03 39.513733 -119.770392 89 4421ft 0kts
14-Mar-20 12:04 39.513141 -119.769214 179 4420ft 9kts
14-Mar-20 12:05 39.486153 -119.769667 173 5045ft 164kts
14-Mar-20 12:06 39.435991 -119.768370 177 6990ft 220kts
14-Mar-20 12:07 39.370674 -119.769537 182 10042ft 244kts
14-Mar-20 12:08 39.305722 -119.735517 138 12817ft 293kts
14-Mar-20 12:09 39.295186 -119.619619 64 14497ft 402kts
14-Mar-20 12:10 39.363148 -119.499182 46 16887ft 427kts
14-Mar-20 12:11 39.451502 -119.391713 42 19172ft 444kts
14-Mar-20 12:12 39.543212 -119.281786 42 21230ft 458kts
14-Mar-20 12:13 39.638311 -119.168071 42 22951ft 472kts
14-Mar-20 12:14 39.735980 -119.050875 41 24706ft 484kts
14-Mar-20 12:15 39.836227 -118.930135 42 26419ft 493kts
14-Mar-20 12:15 39.920565 -118.828139 41 27778ft 498kts
14-Mar-20 12:17 40.040149 -118.682916 41 28822ft 513kts
14-Mar-20 12:18 40.126712 -118.536582 65 28821ft 509kts
14-Mar-20 12:18 40.173014 -118.394319 70 28819ft 509kts
14-Mar-20 12:19 40.222218 -118.223631 72 28811ft 507kts
14-Mar-20 12:21 40.278315 -118.020763 73 28816ft 508kts
14-Mar-20 12:21 40.317901 -117.875377 73 28828ft 507kts
14-Mar-20 12:22 40.365046 -117.700778 73 28836ft 507kts
14-Mar-20 12:23 40.411844 -117.526147 73 28838ft 507kts
14-Mar-20 12:24 40.458386 -117.351218 73 28840ft 507kts
14-Mar-20 12:25 40.504901 -117.175594 73 28833ft 507kts
14-Mar-20 12:26 40.549766 -117.002312 79 28832ft 504kts
14-Mar-20 12:27 40.571839 -116.821973 87 28837ft 496kts
14-Mar-20 12:28 40.585838 -116.640903 88 28836ft 498kts
14-Mar-20 12:29 40.597644 -116.459362 89 28841ft 496kts
14-Mar-20 12:30 40.608714 -116.278397 90 28841ft 494kts
14-Mar-20 12:31 40.619349 -116.097516 89 28854ft 496kts
14-Mar-20 12:32 40.629668 -115.916434 89 28855ft 495kts
14-Mar-20 12:33 40.639702 -115.734664 90 28857ft 496kts
14-Mar-20 12:34 40.649407 -115.553314 90 28860ft 496kts
14-Mar-20 12:35 40.658839 -115.371796 90 28858ft 496kts
14-Mar-20 12:36 40.668036 -115.190706 90 28854ft 495kts
14-Mar-20 12:37 40.676918 -115.009878 90 28854ft 492kts
14-Mar-20 12:38 40.684400 -114.829923 91 28860ft 491kts
14-Mar-20 12:39 40.691300 -114.649871 90 28867ft 493kts
14-Mar-20 12:40 40.698927 -114.468831 90 28868ft 492kts
14-Mar-20 12:41 40.706199 -114.296155 91 28862ft 492kts
14-Mar-20 12:42 40.713587 -114.118731 91 28859ft 459kts
14-Mar-20 12:43 40.720211 -113.949578 91 28864ft 468kts
14-Mar-20 12:44 40.726691 -113.779841 91 27774ft 454kts
14-Mar-20 12:45 40.727172 -113.616508 95 25764ft 436kts
14-Mar-20 12:46 40.726224 -113.459505 95 23905ft 420kts
14-Mar-20 12:47 40.725729 -113.324069 95 22356ft 405kts
14-Mar-20 12:48 40.725379 -113.219322 95 21169ft 393kts
14-Mar-20 12:49 40.724735 -113.078100 95 19564ft 377kts
14-Mar-20 12:50 40.723789 -112.942532 96 17972ft 365kts
14-Mar-20 12:51 40.722481 -112.809791 96 17003ft 370kts
14-Mar-20 12:52 40.721097 -112.673757 96 16994ft 370kts
14-Mar-20 12:53 40.719871 -112.541163 96 15682ft 354kts
14-Mar-20 12:54 40.716249 -112.413377 97 14062ft 343kts
14-Mar-20 12:55 40.712509 -112.291123 98 12471ft 333kts
14-Mar-20 12:56 40.715088 -112.167743 81 12001ft 346kts
14-Mar-20 12:57 40.790509 -112.098220 359 11084ft 351kts
14-Mar-20 12:58 40.879987 -112.106946 351 10964ft 298kts
14-Mar-20 12:59 40.958566 -112.116418 352 10047ft 277kts
14-Mar-20 13:00 41.028980 -112.098932 61 8600ft 260kts
14-Mar-20 13:01 41.049805 -112.018410 81 7530ft 213kts
14-Mar-20 13:02 41.086110 -111.962224 12 6093ft 231kts
14-Mar-20 13:03 41.113428 -112.012707 226 6000ft 186kts
14-Mar-20 13:04 41.068716 -112.027348 181 5993ft 170kts
14-Mar-20 13:05 41.021976 -112.025980 171 5989ft 167kts
14-Mar-20 13:06 40.975492 -112.019007 175 5984ft 168kts
14-Mar-20 13:07 40.928772 -112.014522 173 5998ft 171kts
14-Mar-20 13:08 40.887184 -112.009379 174 5709ft 146kts
14-Mar-20 13:09 40.848090 -112.004352 173 5110ft 143kts
14-Mar-20 13:10 40.809302 -111.999443 172 4319ft 137kts
14-Mar-20 13:11 40.791097 -111.995948 116 4238ft 13kts
14-Mar-20 13:12 40.791058 -111.992781 85 4238ft 12kts
14-Mar-20 13:13 40.791395 -111.986734 104 4238ft 11kts
14-Mar-20 13:14 40.789695 -111.985452 161 4238ft 5kts
14-Mar-20 13:15 40.789296 -111.985276 161 4238ft 0kts
14-Mar-20 13:16 40.789295 -111.985276 161 4238ft 0kts

Navigation Log

Ident Type
Flight plan parsing failed, navigation log unavailable